createdAt,value
2018-09-15T00:01:58.871Z,65.55
2018-09-15T00:06:52.550Z,65.61
2018-09-15T00:11:45.579Z,65.30
2018-09-15T00:16:38.657Z,64.81
2018-09-15T00:21:31.713Z,65.09
2018-09-15T00:26:25.487Z,65.07
2018-09-15T00:31:18.490Z,64.82
2018-09-15T00:36:12.014Z,64.82
2018-09-15T00:41:05.534Z,65.15
2018-09-15T00:45:58.681Z,65.69
2018-09-15T00:50:51.883Z,65.24
2018-09-15T00:55:44.905Z,65.42
2018-09-15T01:00:38.695Z,65.77
2018-09-15T01:05:31.691Z,65.75
2018-09-15T01:10:24.719Z,65.75
2018-09-15T01:15:17.851Z,66.10
2018-09-15T01:20:11.289Z,65.40
2018-09-15T01:25:04.663Z,65.42
2018-09-15T01:29:57.783Z,64.68
2018-09-15T01:34:50.779Z,64.25
2018-09-15T01:39:43.868Z,63.50
2018-09-15T01:44:36.851Z,63.50
2018-09-15T01:49:29.934Z,62.33
2018-09-15T01:54:23.086Z,61.88
2018-09-15T01:59:16.418Z,61.86
2018-09-15T02:04:09.935Z,62.06
2018-09-15T02:09:03.936Z,63.33
2018-09-15T02:13:57.644Z,64.19
2018-09-15T02:18:50.718Z,61.64
2018-09-15T02:23:44.127Z,60.85
2018-09-15T02:28:37.134Z,61.10
2018-09-15T02:33:30.213Z,61.68
2018-09-15T02:38:24.302Z,62.70
2018-09-15T02:43:17.303Z,63.74
2018-09-15T02:48:10.481Z,62.98
2018-09-15T02:53:03.761Z,62.68
2018-09-15T02:57:57.286Z,62.07
2018-09-15T03:02:50.467Z,61.97
2018-09-15T03:07:43.582Z,63.06
2018-09-15T03:12:36.841Z,65.22
2018-09-15T03:17:30.050Z,64.01
2018-09-15T03:22:23.811Z,64.93
2018-09-15T03:27:16.907Z,64.54
2018-09-15T03:32:09.899Z,63.66
2018-09-15T03:37:03.016Z,63.57
2018-09-15T03:41:55.999Z,63.16
2018-09-15T03:46:49.079Z,62.76
2018-09-15T03:51:42.230Z,64.40
2018-09-15T03:56:35.304Z,65.36
2018-09-15T04:01:28.401Z,63.87
2018-09-15T04:06:21.446Z,64.54
2018-09-15T04:11:15.104Z,64.83
2018-09-15T04:16:08.320Z,64.12
2018-09-15T04:21:01.344Z,63.13
2018-09-15T04:25:54.267Z,63.82
2018-09-15T04:30:47.593Z,63.91
2018-09-15T04:35:44.159Z,65.14
2018-09-15T04:40:37.291Z,65.75
2018-09-15T04:45:30.626Z,64.61
2018-09-15T04:50:23.908Z,65.14
2018-09-15T04:55:17.364Z,65.71
2018-09-15T05:00:10.351Z,64.85
2018-09-15T05:05:03.530Z,65.57
2018-09-15T05:09:56.686Z,64.49
2018-09-15T05:14:49.739Z,63.52
2018-09-15T05:19:42.964Z,62.80
2018-09-15T05:24:36.416Z,62.66
2018-09-15T05:29:29.504Z,62.34
2018-09-15T05:34:22.934Z,61.10
2018-09-15T05:39:16.084Z,60.40
2018-09-15T05:44:09.219Z,60.54
2018-09-15T05:49:02.423Z,60.29
2018-09-15T05:53:55.747Z,59.76
2018-09-15T05:58:48.963Z,59.14
2018-09-15T06:03:42.218Z,58.74
2018-09-15T06:08:35.316Z,57.53
2018-09-15T06:13:29.179Z,57.03
2018-09-15T06:18:22.242Z,56.74
2018-09-15T06:23:15.475Z,56.02
2018-09-15T06:28:08.663Z,56.34
2018-09-15T06:33:02.101Z,56.54
2018-09-15T06:37:55.315Z,57.03
2018-09-15T06:42:48.456Z,54.68
2018-09-15T06:47:41.469Z,55.63
2018-09-15T06:52:34.883Z,54.77
2018-09-15T06:57:27.931Z,55.08
2018-09-15T07:02:20.972Z,54.60
2018-09-15T07:07:14.200Z,55.19
2018-09-15T07:12:07.358Z,54.15
2018-09-15T07:17:00.816Z,53.44
2018-09-15T07:21:53.823Z,55.54
2018-09-15T07:26:47.002Z,54.81
2018-09-15T07:31:40.943Z,53.24
2018-09-15T07:36:34.383Z,53.53
2018-09-15T07:41:27.967Z,51.80
2018-09-15T07:46:21.349Z,49.86
2018-09-15T07:51:15.458Z,51.02
2018-09-15T07:56:09.942Z,49.76
2018-09-15T08:01:03.009Z,49.92
2018-09-15T08:06:01.000Z,49.60
2018-09-15T08:10:54.146Z,48.62
2018-09-15T08:15:47.286Z,48.46
2018-09-15T08:20:40.421Z,46.93
2018-09-15T08:25:33.564Z,46.60
2018-09-15T08:30:27.164Z,46.63
2018-09-15T08:35:20.287Z,46.27
2018-09-15T08:40:13.382Z,44.80
2018-09-15T08:45:06.603Z,44.93
2018-09-15T08:50:00.289Z,44.60
2018-09-15T08:54:53.483Z,44.13
2018-09-15T08:59:46.553Z,43.05
2018-09-15T09:04:39.671Z,42.46
2018-09-15T09:09:32.698Z,41.23
2018-09-15T09:14:26.119Z,40.34
2018-09-15T09:19:19.155Z,40.53
2018-09-15T09:24:12.177Z,37.30
2018-09-15T09:29:05.266Z,37.65
2018-09-15T09:33:58.502Z,38.02
2018-09-15T09:38:51.622Z,37.02
2018-09-15T09:43:44.825Z,36.84
2018-09-15T09:48:37.906Z,37.34
2018-09-15T09:53:31.060Z,36.93
2018-09-15T09:58:24.042Z,37.82
2018-09-15T10:03:17.096Z,37.08
2018-09-15T10:08:10.534Z,34.78
2018-09-15T10:13:03.675Z,36.36
2018-09-15T10:17:56.799Z,36.13
2018-09-15T10:22:50.031Z,36.21
2018-09-15T10:27:43.227Z,36.67
2018-09-15T10:32:36.846Z,37.29
2018-09-15T10:37:31.040Z,37.06
2018-09-15T10:42:24.188Z,36.62
2018-09-15T10:47:17.309Z,36.30
2018-09-15T10:52:10.344Z,35.37
2018-09-15T10:57:03.752Z,35.28
2018-09-15T11:01:57.240Z,35.88
2018-09-15T11:06:50.241Z,36.09
2018-09-15T11:11:43.654Z,35.27
2018-09-15T11:16:36.830Z,34.68
2018-09-15T11:21:30.019Z,34.52
2018-09-15T11:26:23.357Z,33.74
2018-09-15T11:31:16.604Z,31.74
2018-09-15T11:36:09.668Z,33.72
2018-09-15T11:41:02.763Z,33.02
2018-09-15T11:45:56.292Z,33.97
2018-09-15T11:50:49.351Z,34.21
2018-09-15T11:55:42.595Z,35.52
2018-09-15T12:00:38.313Z,34.18
2018-09-15T12:05:31.427Z,35.25
2018-09-15T12:10:24.451Z,34.66
2018-09-15T12:15:17.655Z,34.18
2018-09-15T12:20:10.747Z,33.77
2018-09-15T12:25:03.958Z,35.06
2018-09-15T12:29:57.053Z,33.49
2018-09-15T12:34:50.223Z,34.67
2018-09-15T12:39:43.442Z,35.75
2018-09-15T12:44:36.668Z,35.84
2018-09-15T12:49:29.741Z,35.18
2018-09-15T12:54:22.945Z,36.41
2018-09-15T12:59:16.212Z,36.12
2018-09-15T13:04:09.311Z,35.95
2018-09-15T13:09:02.483Z,36.63
2018-09-15T13:13:55.689Z,36.16
2018-09-15T13:18:48.895Z,36.23
2018-09-15T13:23:42.069Z,36.17
2018-09-15T13:28:35.296Z,36.57
2018-09-15T13:33:28.396Z,36.90
2018-09-15T13:38:21.474Z,34.96
2018-09-15T13:43:14.644Z,35.01
2018-09-15T13:48:07.722Z,35.67
2018-09-15T13:53:00.741Z,36.07
2018-09-15T13:57:53.932Z,37.04
2018-09-15T14:02:47.069Z,37.13
2018-09-15T14:07:40.712Z,36.24
2018-09-15T14:12:33.958Z,35.52
2018-09-15T14:17:28.078Z,35.91
2018-09-15T14:22:21.605Z,36.71
2018-09-15T14:27:17.349Z,36.11
2018-09-15T14:32:10.523Z,36.44
2018-09-15T14:37:03.717Z,36.69
2018-09-15T14:41:56.904Z,36.35
2018-09-15T14:46:50.112Z,36.19
2018-09-15T14:51:43.205Z,36.97
2018-09-15T14:56:36.347Z,36.45
2018-09-15T15:01:29.576Z,35.80
2018-09-15T15:06:22.695Z,35.60
2018-09-15T15:11:16.081Z,35.80
2018-09-15T15:16:09.358Z,36.61
2018-09-15T15:21:02.859Z,36.17
2018-09-15T15:25:57.027Z,36.48
2018-09-15T15:30:50.188Z,35.81
2018-09-15T15:35:43.204Z,36.68
2018-09-15T15:40:37.381Z,36.42
2018-09-15T15:45:30.641Z,36.44
2018-09-15T15:50:23.852Z,36.63
2018-09-15T15:55:17.065Z,37.76
2018-09-15T16:00:10.177Z,38.12
2018-09-15T16:05:03.363Z,37.92
2018-09-15T16:09:56.488Z,37.09
2018-09-15T16:14:49.591Z,38.29
2018-09-15T16:19:42.793Z,38.38
2018-09-15T16:24:37.026Z,38.86
2018-09-15T16:29:32.937Z,40.40
2018-09-15T16:34:26.435Z,41.41
2018-09-15T16:39:21.242Z,41.26
2018-09-15T16:44:14.383Z,42.91
2018-09-15T16:49:07.939Z,43.18
2018-09-15T16:54:01.287Z,43.52
2018-09-15T16:58:54.369Z,42.62
2018-09-15T17:03:47.625Z,43.24
2018-09-15T17:08:41.019Z,42.95
2018-09-15T17:13:34.138Z,41.90
2018-09-15T17:18:28.839Z,41.85
2018-09-15T17:23:22.111Z,40.79
2018-09-15T17:28:15.383Z,41.67
2018-09-15T17:33:08.830Z,41.55
2018-09-15T17:38:01.898Z,40.82
2018-09-15T17:42:55.522Z,40.89
2018-09-15T17:47:48.704Z,40.07
2018-09-15T17:52:42.083Z,41.83
2018-09-15T17:57:35.637Z,41.42
2018-09-15T18:02:38.679Z,41.68
2018-09-15T18:07:32.463Z,41.44
2018-09-15T18:12:28.098Z,41.74
2018-09-15T18:17:25.350Z,43.12
2018-09-15T18:22:18.821Z,42.42
2018-09-15T18:27:13.250Z,42.69
2018-09-15T18:32:07.348Z,42.76
2018-09-15T18:37:03.278Z,42.12
2018-09-15T18:41:56.778Z,42.17
2018-09-15T18:46:50.942Z,42.93
2018-09-15T18:51:44.252Z,43.31
2018-09-15T18:56:38.886Z,43.45
2018-09-15T19:01:32.617Z,44.11
2018-09-15T19:06:27.584Z,43.90
2018-09-15T19:11:25.429Z,43.34
2018-09-15T19:16:21.296Z,44.09
2018-09-15T19:21:15.877Z,45.28
2018-09-15T19:26:09.968Z,44.85
2018-09-15T19:31:04.637Z,45.27
2018-09-15T19:35:58.377Z,45.62
2018-09-15T19:40:52.884Z,46.03
2018-09-15T19:45:46.743Z,47.21
2018-09-15T19:50:42.546Z,47.15
2018-09-15T19:55:36.495Z,48.05
2018-09-15T20:00:30.836Z,47.98
2018-09-15T20:05:24.745Z,49.10
2018-09-15T20:10:19.753Z,49.45
2018-09-15T20:15:20.923Z,47.80
2018-09-15T20:20:13.179Z,47.88
2018-09-15T20:25:06.527Z,47.13
2018-09-15T20:30:00.410Z,44.91
2018-09-15T20:34:55.265Z,44.01
2018-09-15T20:39:49.845Z,42.26
2018-09-15T20:44:43.788Z,41.91
2018-09-15T20:49:38.659Z,42.96
2018-09-15T20:54:32.465Z,43.14
2018-09-15T20:59:27.970Z,43.44
2018-09-15T21:04:21.580Z,44.12
2018-09-15T21:09:15.530Z,44.70
2018-09-15T21:14:11.711Z,44.69
2018-09-15T21:19:07.838Z,45.80
2018-09-15T21:24:03.191Z,45.88
2018-09-15T21:28:58.070Z,47.37
2018-09-15T21:33:57.587Z,47.09
2018-09-15T21:38:52.068Z,47.32
2018-09-15T21:43:45.737Z,47.46
2018-09-15T21:48:39.414Z,47.88
2018-09-15T21:53:34.995Z,47.54
2018-09-15T21:58:29.179Z,47.99
2018-09-15T22:03:24.648Z,47.34
2018-09-15T22:08:18.692Z,47.71
2018-09-15T22:13:13.238Z,47.67
2018-09-15T22:18:08.275Z,48.60
2018-09-15T22:23:02.511Z,48.92
2018-09-15T22:27:55.875Z,49.28
2018-09-15T22:32:49.829Z,49.77
2018-09-15T22:37:47.002Z,50.08
2018-09-15T22:42:41.315Z,49.44
2018-09-15T22:47:38.888Z,50.05
2018-09-15T22:52:32.588Z,50.57
2018-09-15T22:57:26.581Z,49.95
2018-09-15T23:02:21.725Z,50.64
2018-09-15T23:07:15.334Z,50.90
2018-09-15T23:12:12.327Z,50.71
2018-09-15T23:17:06.349Z,51.04
2018-09-15T23:22:00.712Z,51.56
2018-09-15T23:26:54.363Z,51.65
2018-09-15T23:31:48.207Z,52.19
2018-09-15T23:36:41.416Z,51.83
2018-09-15T23:41:35.331Z,52.52
2018-09-15T23:46:29.426Z,52.38
2018-09-15T23:51:22.950Z,52.93
2018-09-15T23:56:16.150Z,53.36
